Wetterdaten: Woche 01.03.10 - 07.03.10 (KW9)
Datum Zeit Temp. A. Feuchte A. Luftdruck Regen Wind Richtung Taupunkt Windchill Windben
01.03.2010 00:00 6,6 C 91 % 1003,0 hPa 0,0 l/m 0,3 km/h N 5,3 C 6,6 C 2,4 km/h
01.03.2010 01:00 7,0 C 90 % 1003,3 hPa 0,0 l/m 0,3 km/h N 5,4 C 7,0 C 3,2 km/h
01.03.2010 02:00 7,3 C 84 % 1003,6 hPa 0,0 l/m 1,1 km/h W-SW 4,6 C 7,3 C 8,1 km/h
01.03.2010 03:00 10,8 C 52 % 1003,7 hPa 0,0 l/m 7,1 km/h W 1,4 C 10,1 C 24,5 km/h
01.03.2010 04:00 10,6 C 50 % 1004,3 hPa 0,0 l/m 6,2 km/h W 0,5 C 10,1 C 22,5 km/h
01.03.2010 05:00 9,9 C 51 % 1004,8 hPa 0,0 l/m 10,1 km/h W 0,1 C 7,4 C 28,2 km/h
01.03.2010 06:00 9,8 C 49 % 1005,8 hPa 0,0 l/m 14,1 km/h W -0,4 C 5,4 C 34,6 km/h
01.03.2010 07:00 9,9 C 45 % 1006,8 hPa 0,0 l/m 12,4 km/h W -1,5 C 6,2 C 35,0 km/h
01.03.2010 08:00 10,4 C 43 % 1008,0 hPa 0,0 l/m 11,2 km/h NW -1,6 C 7,3 C 30,2 km/h
01.03.2010 09:00 10,8 C 45 % 1008,3 hPa 0,0 l/m 14,5 km/h W -0,8 C 6,4 C 32,2 km/h
01.03.2010 10:00 11,1 C 42 % 1008,8 hPa 0,0 l/m 15,6 km/h W -1,3 C 6,2 C 41,0 km/h
01.03.2010 11:00 12,0 C 41 % 1009,4 hPa 0,0 l/m 13,4 km/h W-NW -0,7 C 8,3 C 37,8 km/h
01.03.2010 12:00 12,4 C 40 % 1009,3 hPa 0,0 l/m 14,4 km/h W -0,9 C 8,2 C 35,0 km/h
01.03.2010 13:00 13,3 C 38 % 1008,8 hPa 0,0 l/m 11,8 km/h NW -0,9 C 10,4 C 29,0 km/h
01.03.2010 14:00 13,3 C 40 % 1008,5 hPa 0,0 l/m 10,3 km/h W -0,2 C 11,0 C 25,0 km/h
01.03.2010 15:00 13,0 C 39 % 1008,5 hPa 0,0 l/m 8,7 km/h W -0,7 C 11,6 C 20,1 km/h
01.03.2010 16:00 12,3 C 39 % 1008,8 hPa 0,0 l/m 7,6 km/h W-NW -1,2 C 11,5 C 18,9 km/h
01.03.2010 17:00 11,2 C 42 % 1009,3 hPa 0,0 l/m 5,2 km/h W-NW -1,3 C 11,2 C 15,7 km/h
01.03.2010 18:00 10,1 C 45 % 1010,1 hPa 0,0 l/m 4,3 km/h W -1,2 C 10,1 C 14,1 km/h
01.03.2010 19:00 9,5 C 47 % 1010,6 hPa 0,0 l/m 5,7 km/h NW -1,3 C 9,4 C 17,7 km/h
01.03.2010 20:00 8,8 C 47 % 1011,6 hPa 0,0 l/m 3,4 km/h NW -1,9 C 8,8 C 11,7 km/h
01.03.2010 21:00 5,1 C 58 % 1012,9 hPa 0,0 l/m 0,1 km/h N -2,5 C 5,1 C 2,0 km/h
01.03.2010 22:00 3,3 C 65 % 1013,8 hPa 0,0 l/m 0,3 km/h N -2,7 C 3,3 C 2,4 km/h
01.03.2010 23:00 0,8 C 73 % 1014,3 hPa 0,0 l/m 0,0 km/h N -3,5 C 0,8 C 0,0 km/h
02.03.2010 00:00 0,3 C 75 % 1014,8 hPa 0,0 l/m 0,0 km/h N -3,6 C 0,3 C 0,4 km/h
02.03.2010 01:00 -0,5 C 80 % 1015,1 hPa 0,0 l/m 0,0 km/h N -3,6 C -0,5 C 0,0 km/h
02.03.2010 02:00 -0,7 C 81 % 1015,3 hPa 0,0 l/m 0,0 km/h N -3,6 C -0,7 C 0,4 km/h
02.03.2010 03:00 -0,8 C 81 % 1015,8 hPa 0,0 l/m 0,0 km/h N -3,6 C -0,8 C 0,0 km/h
02.03.2010 04:00 -1,4 C 82 % 1016,5 hPa 0,0 l/m 0,0 km/h N -4,0 C -1,4 C 0,8 km/h
02.03.2010 05:00 -1,6 C 82 % 1017,3 hPa 0,0 l/m 0,0 km/h N -4,2 C -1,6 C 0,8 km/h
02.03.2010 06:00 0,5 C 80 % 1017,5 hPa 0,0 l/m 0,8 km/h N-NW -2,7 C 0,5 C 3,2 km/h
02.03.2010 07:00 3,5 C 69 % 1017,9 hPa 0,0 l/m 2,1 km/h NW -1,7 C 3,5 C 6,4 km/h
02.03.2010 08:00 5,1 C 63 % 1018,7 hPa 0,0 l/m 3,6 km/h N-NW -1,4 C 5,0 C 9,2 km/h
02.03.2010 09:00 6,2 C 58 % 1019,3 hPa 0,0 l/m 7,2 km/h NW -1,5 C 5,3 C 17,7 km/h
02.03.2010 10:00 7,5 C 52 % 1019,7 hPa 0,0 l/m 6,0 km/h N-NW -1,8 C 7,4 C 14,1 km/h
02.03.2010 11:00 8,2 C 47 % 1019,8 hPa 0,0 l/m 6,0 km/h W-NW -2,4 C 8,1 C 16,1 km/h
02.03.2010 12:00 8,3 C 48 % 1019,6 hPa 0,0 l/m 5,8 km/h N-NW -2,0 C 8,0 C 13,3 km/h
02.03.2010 13:00 9,1 C 47 % 1019,1 hPa 0,0 l/m 4,6 km/h W-SW -1,5 C 9,1 C 13,3 km/h
02.03.2010 14:00 9,8 C 44 % 1018,7 hPa 0,0 l/m 3,4 km/h NW -1,9 C 9,8 C 12,1 km/h
02.03.2010 15:00 10,1 C 42 % 1018,6 hPa 0,0 l/m 3,7 km/h W -2,1 C 10,1 C 12,9 km/h
02.03.2010 16:00 9,6 C 46 % 1018,4 hPa 0,0 l/m 4,3 km/h W-SW -1,4 C 9,6 C 14,9 km/h
02.03.2010 17:00 8,3 C 55 % 1018,8 hPa 0,0 l/m 7,4 km/h NW -0,3 C 7,4 C 19,3 km/h
02.03.2010 18:00 6,9 C 64 % 1019,2 hPa 0,0 l/m 3,8 km/h W 0,5 C 6,9 C 11,7 km/h
02.03.2010 19:00 6,4 C 68 % 1019,1 hPa 0,0 l/m 3,2 km/h NW 0,9 C 6,4 C 12,1 km/h
02.03.2010 20:00 5,3 C 77 % 1020,0 hPa 0,8 l/m 5,2 km/h W-NW 1,6 C 5,3 C 17,3 km/h
02.03.2010 21:00 4,1 C 84 % 1020,8 hPa 0,3 l/m 4,5 km/h NW 1,6 C 4,0 C 12,9 km/h
02.03.2010 22:00 3,7 C 85 % 1021,4 hPa 0,5 l/m 6,4 km/h NW 1,4 C 3,3 C 17,3 km/h
02.03.2010 23:00 3,3 C 85 % 1022,0 hPa 0,0 l/m 3,4 km/h W-NW 1,1 C 3,3 C 11,3 km/h
03.03.2010 00:00 3,8 C 82 % 1022,1 hPa 0,0 l/m 6,6 km/h W 1,1 C 3,3 C 19,3 km/h
03.03.2010 01:00 3,5 C 79 % 1022,5 hPa 0,0 l/m 7,5 km/h W-NW 0,1 C 2,4 C 22,9 km/h
03.03.2010 02:00 3,0 C 79 % 1022,6 hPa 0,0 l/m 5,6 km/h NW -0,4 C 2,8 C 15,7 km/h
03.03.2010 03:00 2,8 C 78 % 1022,8 hPa 0,0 l/m 6,7 km/h NW -0,8 C 2,4 C 18,9 km/h
03.03.2010 04:00 2,5 C 76 % 1022,8 hPa 0,0 l/m 5,9 km/h NW -1,2 C 2,4 C 16,9 km/h
03.03.2010 05:00 2,3 C 71 % 1023,0 hPa 0,0 l/m 4,0 km/h W-SW -2,5 C 2,3 C 15,7 km/h
03.03.2010 06:00 1,9 C 75 % 1023,2 hPa 0,0 l/m 2,6 km/h W -2,1 C 1,9 C 13,7 km/h
03.03.2010 07:00 2,5 C 74 % 1023,5 hPa 0,0 l/m 3,4 km/h W -1,8 C 2,5 C 15,3 km/h
03.03.2010 08:00 3,5 C 72 % 1023,9 hPa 0,0 l/m 3,2 km/h NW -1,1 C 3,5 C 9,7 km/h
03.03.2010 09:00 4,4 C 70 % 1023,8 hPa 0,0 l/m 3,4 km/h W-NW -0,6 C 4,4 C 12,5 km/h
03.03.2010 10:00 5,1 C 65 % 1023,6 hPa 0,0 l/m 3,9 km/h W -0,9 C 5,1 C 11,3 km/h
03.03.2010 11:00 6,6 C 52 % 1023,2 hPa 0,0 l/m 5,8 km/h W -2,5 C 6,4 C 18,5 km/h
03.03.2010 12:00 7,4 C 46 % 1022,5 hPa 0,0 l/m 6,9 km/h W-NW -3,6 C 7,0 C 18,8 km/h
03.03.2010 13:00 7,6 C 41 % 1022,0 hPa 0,0 l/m 5,4 km/h NW -4,8 C 7,6 C 16,1 km/h
03.03.2010 14:00 8,1 C 41 % 1020,5 hPa 0,0 l/m 6,9 km/h NW -4,3 C 7,5 C 16,1 km/h
03.03.2010 15:00 8,0 C 39 % 1019,8 hPa 0,0 l/m 6,8 km/h W-NW -5,0 C 7,6 C 14,9 km/h
03.03.2010 16:00 7,6 C 41 % 1019,1 hPa 0,0 l/m 4,0 km/h W-SW -4,8 C 7,5 C 11,7 km/h
03.03.2010 17:00 6,5 C 43 % 1019,1 hPa 0,0 l/m 1,0 km/h SW -5,4 C 6,5 C 6,0 km/h
03.03.2010 18:00 3,7 C 53 % 1019,1 hPa 0,0 l/m 0,0 km/h N -4,9 C 3,7 C 0,0 km/h
03.03.2010 19:00 1,8 C 63 % 1019,0 hPa 0,0 l/m 0,0 km/h N -4,5 C 1,8 C 1,2 km/h
03.03.2010 20:00 0,8 C 70 % 1018,9 hPa 0,0 l/m 0,0 km/h N -4,2 C 0,8 C 0,8 km/h
03.03.2010 21:00 0,6 C 73 % 1018,8 hPa 0,0 l/m 0,2 km/h N -3,8 C 0,6 C 1,2 km/h
03.03.2010 22:00 2,2 C 59 % 1018,5 hPa 0,0 l/m 0,6 km/h N -5,0 C 2,2 C 4,0 km/h
03.03.2010 23:00 1,9 C 59 % 1018,1 hPa 0,0 l/m 0,3 km/h N -5,2 C 1,9 C 2,8 km/h
04.03.2010 00:00 1,9 C 61 % 1017,5 hPa 0,0 l/m 0,2 km/h N -5,0 C 1,9 C 2,8 km/h
04.03.2010 01:00 1,5 C 63 % 1016,8 hPa 0,0 l/m 0,0 km/h N -4,9 C 1,5 C 1,6 km/h
04.03.2010 02:00 1,0 C 67 % 1016,0 hPa 0,0 l/m 0,0 km/h N -4,4 C 1,0 C 1,2 km/h
04.03.2010 03:00 1,2 C 66 % 1015,1 hPa 0,0 l/m 0,3 km/h N -4,4 C 1,2 C 2,8 km/h
04.03.2010 04:00 1,4 C 61 % 1014,4 hPa 0,0 l/m 0,2 km/h N -5,4 C 1,4 C 2,4 km/h
04.03.2010 05:00 1,3 C 61 % 1013,8 hPa 0,0 l/m 0,2 km/h N -5,3 C 1,3 C 2,8 km/h
04.03.2010 06:00 1,1 C 64 % 1013,3 hPa 0,0 l/m 0,0 km/h N -5,0 C 1,1 C 0,0 km/h
04.03.2010 07:00 1,0 C 66 % 1013,3 hPa 0,0 l/m 0,0 km/h N -4,6 C 1,0 C 1,2 km/h
04.03.2010 08:00 1,5 C 64 % 1013,1 hPa 0,0 l/m 0,5 km/h N -4,5 C 1,5 C 2,4 km/h
04.03.2010 09:00 2,1 C 63 % 1012,9 hPa 0,0 l/m 1,5 km/h NO -4,3 C 2,1 C 5,2 km/h
04.03.2010 10:00 2,5 C 61 % 1012,8 hPa 0,0 l/m 2,2 km/h N-NO -4,1 C 2,5 C 7,2 km/h
04.03.2010 11:00 3,0 C 60 % 1012,5 hPa 0,0 l/m 2,8 km/h O-NO -4,1 C 3,0 C 8,4 km/h
04.03.2010 12:00 3,7 C 57 % 1011,8 hPa 0,0 l/m 4,5 km/h NO -4,1 C 3,7 C 12,1 km/h
04.03.2010 13:00 4,2 C 57 % 1011,3 hPa 0,0 l/m 5,1 km/h N -3,5 C 4,2 C 9,7 km/h
04.03.2010 14:00 4,2 C 58 % 1011,0 hPa 0,3 l/m 4,5 km/h NO -3,3 C 4,2 C 9,7 km/h
04.03.2010 15:00 3,8 C 59 % 1011,3 hPa 0,0 l/m 4,6 km/h N-NO -3,5 C 3,8 C 12,5 km/h
04.03.2010 16:00 3,4 C 56 % 1011,7 hPa 0,0 l/m 4,8 km/h NW -4,5 C 3,4 C 12,1 km/h
04.03.2010 17:00 3,2 C 58 % 1012,3 hPa 0,0 l/m 5,0 km/h N -4,2 C 3,2 C 15,3 km/h
04.03.2010 18:00 2,8 C 60 % 1012,9 hPa 0,0 l/m 5,4 km/h NW -4,2 C 2,8 C 13,3 km/h
04.03.2010 19:00 2,5 C 63 % 1013,4 hPa 0,0 l/m 4,1 km/h W-NW -3,9 C 2,5 C 10,5 km/h
04.03.2010 20:00 2,3 C 62 % 1013,7 hPa 0,0 l/m 5,9 km/h N-NW -4,2 C 1,8 C 16,5 km/h
04.03.2010 21:00 2,2 C 56 % 1014,4 hPa 0,0 l/m 9,6 km/h NW -5,6 C -0,7 C 21,3 km/h
04.03.2010 22:00 1,9 C 54 % 1014,8 hPa 0,0 l/m 7,2 km/h NW -6,4 C 1,0 C 18,1 km/h
04.03.2010 23:00 1,3 C 55 % 1014,8 hPa 0,0 l/m 7,6 km/h N-NW -6,7 C 0,2 C 19,3 km/h
05.03.2010 00:00 0,9 C 59 % 1015,0 hPa 0,0 l/m 7,1 km/h NW -6,3 C 0,1 C 17,3 km/h
05.03.2010 01:00 0,5 C 61 % 1015,4 hPa 0,0 l/m 7,0 km/h N-NW -6,1 C -0,2 C 18,1 km/h
05.03.2010 02:00 0,1 C 64 % 1015,5 hPa 0,0 l/m 7,2 km/h N-NW -6,0 C -1,0 C 17,3 km/h
05.03.2010 03:00 -0,2 C 66 % 1015,8 hPa 0,0 l/m 8,1 km/h NW -5,8 C -1,9 C 20,5 km/h
05.03.2010 04:00 -0,5 C 68 % 1016,3 hPa 0,0 l/m 10,4 km/h N-NW -5,8 C -4,4 C 25,3 km/h
05.03.2010 05:00 -0,8 C 69 % 1016,8 hPa 0,0 l/m 11,3 km/h NW -5,9 C -5,3 C 24,5 km/h
05.03.2010 06:00 -1,5 C 63 % 1017,3 hPa 0,0 l/m 12,4 km/h N-NW -7,7 C -6,9 C 26,5 km/h
05.03.2010 07:00 -2,0 C 55 % 1018,1 hPa 0,0 l/m 13,6 km/h N-NW -9,7 C -8,4 C 30,6 km/h
05.03.2010 08:00 -1,6 C 56 % 1018,4 hPa 0,0 l/m 14,1 km/h N -9,3 C -8,3 C 30,6 km/h
05.03.2010 09:00 -1,2 C 55 % 1018,6 hPa 0,0 l/m 15,2 km/h N-NO -9,0 C -8,5 C 30,6 km/h
05.03.2010 10:00 -0,7 C 52 % 1018,6 hPa 0,0 l/m 14,9 km/h NW -9,2 C -7,7 C 28,5 km/h
05.03.2010 11:00 0,0 C 47 % 1018,8 hPa 0,0 l/m 14,6 km/h W -9,8 C -6,7 C 31,0 km/h
05.03.2010 12:00 0,5 C 45 % 1018,8 hPa 0,0 l/m 14,8 km/h N-NW -10,2 C -6,3 C 30,6 km/h
05.03.2010 13:00 0,9 C 47 % 1018,3 hPa 0,0 l/m 15,3 km/h N-NW -9,1 C -6,0 C 30,2 km/h
05.03.2010 14:00 0,8 C 46 % 1018,2 hPa 0,0 l/m 15,8 km/h NW -9,5 C -6,4 C 32,2 km/h
05.03.2010 15:00 0,4 C 46 % 1018,4 hPa 0,0 l/m 14,5 km/h NW -10,0 C -6,2 C 33,4 km/h
05.03.2010 16:00 -0,2 C 51 % 1018,6 hPa 0,0 l/m 11,9 km/h NW -9,2 C -5,1 C 28,2 km/h
05.03.2010 17:00 -1,0 C 54 % 1019,2 hPa 0,0 l/m 10,5 km/h NW -9,1 C -4,9 C 24,1 km/h
05.03.2010 18:00 -1,5 C 55 % 1019,9 hPa 0,0 l/m 9,1 km/h NW -9,3 C -4,3 C 21,7 km/h
05.03.2010 19:00 -1,9 C 57 % 1020,3 hPa 0,0 l/m 8,4 km/h NW -9,4 C -4,1 C 21,3 km/h
05.03.2010 20:00 -2,4 C 58 % 1020,7 hPa 0,0 l/m 7,1 km/h NW -9,6 C -3,3 C 18,1 km/h
05.03.2010 21:00 -2,7 C 59 % 1021,0 hPa 0,0 l/m 5,8 km/h NW -9,6 C -3,2 C 16,1 km/h
05.03.2010 22:00 -3,1 C 60 % 1020,8 hPa 0,0 l/m 8,3 km/h NW -9,7 C -5,4 C 20,9 km/h
05.03.2010 23:00 -3,6 C 64 % 1020,5 hPa 0,0 l/m 4,6 km/h NW -9,5 C -3,6 C 14,5 km/h
06.03.2010 00:00 -3,5 C 62 % 1019,9 hPa 0,0 l/m 4,1 km/h NW -9,8 C -3,5 C 12,1 km/h
06.03.2010 01:00 -3,5 C 58 % 1019,5 hPa 0,0 l/m 2,8 km/h N-NW -10,5 C -3,5 C 9,6 km/h
06.03.2010 02:00 -4,3 C 63 % 1019,1 hPa 0,0 l/m 0,2 km/h N -10,3 C -4,3 C 2,0 km/h
06.03.2010 03:00 -5,1 C 67 % 1018,4 hPa 0,0 l/m 0,0 km/h N -10,3 C -5,1 C 1,2 km/h
06.03.2010 04:00 -5,2 C 70 % 1017,9 hPa 0,0 l/m 0,1 km/h N -9,8 C -5,2 C 0,4 km/h
06.03.2010 05:00 -4,4 C 67 % 1017,2 hPa 0,0 l/m 0,1 km/h N -9,5 C -4,4 C 1,6 km/h
06.03.2010 06:00 -4,4 C 66 % 1016,8 hPa 0,0 l/m 0,1 km/h SW -9,7 C -4,4 C 2,0 km/h
06.03.2010 07:00 -3,6 C 62 % 1016,7 hPa 0,0 l/m 1,4 km/h S-SO -9,8 C -3,6 C 7,2 km/h
06.03.2010 08:00 -2,9 C 61 % 1016,5 hPa 0,0 l/m 2,8 km/h O -9,3 C -2,9 C 8,9 km/h
06.03.2010 09:00 -2,1 C 59 % 1016,3 hPa 0,0 l/m 3,7 km/h O-SO -9,0 C -2,1 C 10,5 km/h
06.03.2010 10:00 -0,8 C 54 % 1016,0 hPa 0,0 l/m 4,6 km/h S-SO -8,8 C -0,8 C 13,3 km/h
06.03.2010 11:00 0,1 C 53 % 1015,7 hPa 0,0 l/m 3,7 km/h O-SO -8,3 C 0,1 C 11,3 km/h
06.03.2010 12:00 0,8 C 53 % 1015,3 hPa 0,0 l/m 2,6 km/h S-SO -7,7 C 0,8 C 8,1 km/h
06.03.2010 13:00 1,1 C 55 % 1015,2 hPa 0,0 l/m 2,7 km/h O-SO -6,9 C 1,1 C 10,5 km/h
06.03.2010 14:00 0,8 C 58 % 1015,4 hPa 0,0 l/m 2,9 km/h O -6,6 C 0,8 C 11,7 km/h
06.03.2010 15:00 0,7 C 62 % 1016,0 hPa 0,0 l/m 2,2 km/h O -5,8 C 0,7 C 6,8 km/h
06.03.2010 16:00 -0,3 C 71 % 1016,8 hPa 0,0 l/m 4,3 km/h O-NO -5,0 C -0,3 C 11,3 km/h
06.03.2010 17:00 -1,5 C 82 % 1018,2 hPa 0,0 l/m 5,9 km/h NO -4,2 C -1,7 C 12,1 km/h
06.03.2010 18:00 -2,6 C 87 % 1019,5 hPa 0,0 l/m 6,7 km/h NO -4,5 C -3,0 C 16,1 km/h
06.03.2010 19:00 -3,3 C 87 % 1020,7 hPa 0,0 l/m 5,3 km/h NO -5,1 C -3,8 C 12,5 km/h
06.03.2010 20:00 -3,4 C 88 % 1021,5 hPa 0,0 l/m 2,2 km/h NO -5,1 C -3,4 C 6,8 km/h
06.03.2010 21:00 -3,4 C 88 % 1022,3 hPa 0,0 l/m 1,1 km/h N-NO -5,2 C -3,4 C 7,3 km/h
06.03.2010 22:00 -3,2 C 71 % 1023,2 hPa 0,0 l/m 3,2 km/h N-NO -7,6 C -3,2 C 10,1 km/h
06.03.2010 23:00 -3,2 C 67 % 1024,0 hPa 0,0 l/m 3,5 km/h NO -8,4 C -3,2 C 12,1 km/h
07.03.2010 00:00 -3,5 C 69 % 1024,8 hPa 0,0 l/m 2,7 km/h N-NW -8,3 C -3,5 C 7,6 km/h
07.03.2010 01:00 -4,4 C 71 % 1025,5 hPa 0,0 l/m 2,5 km/h NW -8,8 C -4,4 C 6,8 km/h
07.03.2010 02:00 -5,2 C 74 % 1026,0 hPa 0,0 l/m 2,4 km/h NW -9,1 C -5,2 C 6,4 km/h
07.03.2010 03:00 -5,4 C 74 % 1026,3 hPa 0,0 l/m 3,4 km/h NW -9,3 C -5,4 C 10,5 km/h
07.03.2010 04:00 -5,2 C 75 % 1027,0 hPa 0,0 l/m 3,8 km/h NW -9,0 C -5,2 C 11,3 km/h
07.03.2010 05:00 -4,8 C 75 % 1027,5 hPa 0,0 l/m 4,9 km/h NW -8,5 C -4,8 C 13,3 km/h
07.03.2010 06:00 -4,5 C 74 % 1028,0 hPa 0,0 l/m 4,5 km/h N-NW -8,4 C -4,5 C 15,3 km/h
07.03.2010 07:00 -4,4 C 74 % 1028,8 hPa 0,0 l/m 5,4 km/h NW -8,3 C -4,4 C 15,7 km/h
07.03.2010 08:00 -4,1 C 73 % 1029,4 hPa 0,0 l/m 4,2 km/h NW -8,2 C -4,1 C 12,1 km/h
07.03.2010 09:00 -3,3 C 69 % 1029,8 hPa 0,0 l/m 6,3 km/h NW -8,2 C -3,5 C 16,9 km/h
07.03.2010 10:00 -2,6 C 68 % 1030,0 hPa 0,0 l/m 5,2 km/h NW -7,8 C -2,6 C 13,7 km/h
07.03.2010 11:00 -1,9 C 66 % 1030,1 hPa 0,3 l/m 6,3 km/h W -7,5 C -2,2 C 17,3 km/h
07.03.2010 12:00 -1,4 C 63 % 1029,9 hPa 0,5 l/m 5,4 km/h NW -7,6 C -1,4 C 15,7 km/h
07.03.2010 13:00 -0,7 C 59 % 1029,5 hPa 0,0 l/m 5,8 km/h W -7,8 C -0,9 C 16,9 km/h
07.03.2010 14:00 -0,6 C 59 % 1029,3 hPa 0,0 l/m 7,6 km/h NW -7,7 C -1,8 C 19,7 km/h
07.03.2010 15:00 -0,6 C 54 % 1029,0 hPa 0,0 l/m 7,1 km/h N-NW -8,7 C -1,3 C 17,7 km/h
07.03.2010 16:00 -1,0 C 55 % 1029,1 hPa 0,0 l/m 5,4 km/h NW -8,8 C -1,0 C 18,1 km/h
07.03.2010 17:00 -1,4 C 55 % 1029,1 hPa 0,0 l/m 4,8 km/h NW -9,2 C -1,4 C 13,3 km/h
07.03.2010 18:00 -1,8 C 55 % 1029,1 hPa 0,0 l/m 3,8 km/h NO -9,6 C -1,8 C 10,1 km/h
07.03.2010 19:00 -3,2 C 60 % 1029,2 hPa 0,0 l/m 0,6 km/h N -9,8 C -3,2 C 4,0 km/h
07.03.2010 20:00 -3,8 C 62 % 1028,9 hPa 0,0 l/m 0,5 km/h N -10,0 C -3,8 C 2,8 km/h
07.03.2010 21:00 -3,6 C 62 % 1028,8 hPa 0,0 l/m 1,2 km/h W-SW -9,9 C -3,6 C 5,2 km/h
07.03.2010 22:00 -3,7 C 63 % 1028,9 hPa 0,0 l/m 1,5 km/h W-SW -9,8 C -3,7 C 6,0 km/h
07.03.2010 23:00 -3,9 C 63 % 1028,6 hPa 0,0 l/m 1,1 km/h W-NW -9,9 C -3,9 C 5,2 km/h
Min-Datum _ 06.03.10 01.03.10 01.03.10 - 01.03.10 - 06.03.10 05.03.10 01.03.10
_ Min-Zeit 04:15 13:30 00:00 - 00:45 - 02:00 09:30 21:30
Minimum _ -5,8 C 36 % 1002,6 hPa - 0,0 km/h - -10,8 C -10,3 C 0,0 km/h
Max-Datum _ 01.03.10 01.03.10 07.03.10 02.03.10 05.03.10 - 01.03.10 01.03.10 01.03.10
_ Max-Zeit 13:30 00:00 11:00 20:15 14:15 - 01:15 15:30 10:32
Maximum _ 13,7 C 91 % 1030,1 hPa 0,8 l/m 20,0 km/h
NW
- 5,6 C 12,1 C 46,7 km/h
W-SW
Durchschnitt _ 2,0 C 61 % 1018,1 hPa #2,6 l/m 5,1 km/h NW -4,9 C 1,1 C 13,7 km/h